Lake Cumberland Regional Airport
KSME : now visible

Airfield :











YOU CAN JOIN US ON...

 
LOGIN :

Register | Disclaimer

   EN    FR    IT 

 









Legend :    VFR   Marginal VFR   IFR   Intensive IFR   Very Intensive IFR
Visi :
Ceiling :
>= 8 km
>= 3000ft
5 to 8 km
1000 to 3000 ft
1500m to 5 km
500 to 1000 ft
800 to 1500m
200 to 500 ft
< 800m
< 200 ft
Symbols :   Thunderstorms  Fog  Heavy snow  Heavy precipitations  Wind > 20 kt






- Airport Elevation : 927 ft


KSME - Lake Cumberland Regional

CURRENT METAR :
  • 081955Z AUTO 16007G14KT 10SM OVC060 13/02 A3013 RMK AO2

EXPIRED METARs :
  • 081935Z AUTO 16008G15KT 10SM BKN060 13/02 A3013 RMK AO2
  • 081915Z AUTO 15010G16KT 10SM BKN060 13/02 A3013 RMK AO2
  • 081855Z AUTO 16010G16KT 10SM OVC060 14/02 A3013 RMK AO2
  • 081835Z AUTO 16008KT 10SM OVC060 13/02 A3015 RMK AO2
  • 081815Z AUTO 15008G15KT 10SM OVC060 13/02 A3016 RMK AO2
  • 081755Z AUTO 17007KT 140V200 10SM SCT050 OVC060 12/02 A3018 RMK AO2
  • 081735Z AUTO 16006KT 10SM OVC060 12/02 A3018 RMK AO2
  • 081715Z AUTO 17007KT 10SM OVC060 11/02 A3020 RMK AO2

TAF KSME
Valid from the 08 at 18:00 until the 09 at 18:00 UTC


081743Z 0818/0918 18008G15KT P6SM BKN050 OVC100
FM090300 17005KT P6SM VCSH OVC050 WS020/19035KT
FM090800 18007KT P6SM -SHRA SCT025 OVC035 WS020/20040KT
FM091400 19010KT P6SM SCT015 OVC035 WS020/20045KT



MET'MAP, your aeronautical weather chart ! - Copyright ORBIFLY December 2007 - Disclaimer

ORBIFLY MET'MAP TEAM :

Programming & Development : Alexandra Zaïnal
Concept & original design : Baudouin d'Aumeries
Assistance for programming : Marc-Olivier Méhu
Technical & hardware support : Manuel Goepfert

Contact : metmap@orbifly.com




SOURCES & CREDITS :

   NOAA       Earth
Advisory